Time;durP1;ratioP1;P1;durP2;ratioP2;P2;SDS_P1;SDS_P2;PMS_P1;PMS_P2;Temp;Humidity;BMP_temperature;BMP_pressure;BME280_temperature;BME280_humidity;BME280_pressure;Samples;Min_cycle;Max_cycle;Signal;HPM_P1;HPM_P2
2023/07/07 00:00:04;;;;;;;3.92;2.97;;;;;;;10.77;100.00;102012.50;5032379;28;20053;-73
2023/07/07 00:02:30;;;;;;;7.75;4.00;;;;;;;10.76;100.00;102009.94;4998913;28;20389;-72
2023/07/07 00:04:55;;;;;;;8.68;4.10;;;;;;;10.74;100.00;102017.22;5032928;28;20037;-73
2023/07/07 00:07:21;;;;;;;3.90;3.45;;;;;;;10.69;100.00;102014.88;5032509;28;20374;-72
2023/07/07 00:09:46;;;;;;;6.72;4.22;;;;;;;10.66;100.00;102012.44;5032564;28;20033;-73
2023/07/07 00:12:13;;;;;;;5.72;3.90;;;;;;;10.65;100.00;102015.22;5032386;28;20025;-73
2023/07/07 00:14:39;;;;;;;6.68;4.00;;;;;;;10.65;100.00;102020.53;5032753;28;20046;-72
2023/07/07 00:17:05;;;;;;;11.93;4.60;;;;;;;10.64;100.00;102025.00;5031979;28;20083;-73
2023/07/07 00:19:32;;;;;;;7.95;4.07;;;;;;;10.63;100.00;102012.66;5032734;28;20091;-72
2023/07/07 00:21:59;;;;;;;9.68;4.50;;;;;;;10.60;100.00;102012.91;5032842;28;20029;-72
2023/07/07 00:24:25;;;;;;;7.97;4.15;;;;;;;10.57;100.00;102016.63;5032790;28;20382;-73
2023/07/07 00:26:51;;;;;;;6.32;4.22;;;;;;;10.55;100.00;102020.34;5032587;28;20491;-72
2023/07/07 00:29:16;;;;;;;6.00;4.18;;;;;;;10.52;100.00;102021.41;5032178;28;20048;-72
2023/07/07 00:31:42;;;;;;;8.40;4.30;;;;;;;10.48;100.00;102017.28;5032575;28;20029;-73
2023/07/07 00:34:07;;;;;;;5.10;4.30;;;;;;;10.44;100.00;102014.97;5032252;28;20029;-72
2023/07/07 00:36:32;;;;;;;5.72;3.88;;;;;;;10.39;100.00;102016.13;5032498;28;20029;-71
2023/07/07 00:38:58;;;;;;;4.78;3.65;;;;;;;10.37;100.00;102015.38;5032562;28;20363;-72
2023/07/07 00:41:23;;;;;;;5.22;3.85;;;;;;;10.33;100.00;102010.34;5014362;28;20113;-73
2023/07/07 00:44:10;;;;;;;4.43;3.30;;;;;;;10.29;100.00;102003.56;5032337;28;20116;-72
2023/07/07 00:46:37;;;;;;;6.15;3.92;;;;;;;10.27;100.00;101997.47;5032494;28;20033;-73
2023/07/07 00:49:12;;;;;;;6.78;3.75;;;;;;;10.27;100.00;101994.81;5032061;28;20179;-72
2023/07/07 00:51:43;;;;;;;4.97;3.28;;;;;;;10.26;100.00;102003.78;5032146;28;20116;-73
2023/07/07 00:54:15;;;;;;;6.38;3.20;;;;;;;10.22;100.00;101993.31;5031774;28;20044;-73
2023/07/07 00:56:47;;;;;;;8.00;3.45;;;;;;;10.21;100.00;101998.75;5034151;28;20060;-73
2023/07/07 00:59:17;;;;;;;;;;;;;;;10.21;100.00;101994.31;5035058;28;20032;-72
2023/07/07 01:01:43;;;;;;;6.03;3.70;;;;;;;10.18;100.00;101996.31;5034816;28;19919;-72
2023/07/07 01:04:16;;;;;;;5.70;3.45;;;;;;;10.11;100.00;101995.91;5016844;28;20124;-73
2023/07/07 01:06:49;;;;;;;6.05;3.97;;;;;;;10.10;100.00;101991.53;5035008;28;20104;-73
2023/07/07 01:09:15;;;;;;;5.07;3.83;;;;;;;10.09;100.00;101991.66;5034691;28;20038;-73
2023/07/07 01:11:40;;;;;;;6.60;3.53;;;;;;;10.06;100.00;101990.06;5034896;28;20056;-73
2023/07/07 01:14:10;;;;;;;4.72;3.47;;;;;;;10.03;100.00;101991.13;5034745;28;20478;-72
2023/07/07 01:16:41;;;;;;;6.00;3.20;;;;;;;10.03;100.00;101993.78;5034962;28;20030;-73
2023/07/07 01:19:25;;;;;;;5.07;3.30;;;;;;;10.03;100.00;101992.94;5034328;28;20133;-73
2023/07/07 01:22:03;;;;;;;4.75;3.33;;;;;;;10.02;100.00;101983.28;5034692;28;20036;-72
2023/07/07 01:24:48;;;;;;;3.85;2.92;;;;;;;10.02;100.00;101991.25;5034254;28;20131;-73
2023/07/07 01:27:49;;;;;;;5.65;3.78;;;;;;;10.03;100.00;101993.78;5034250;28;20031;-73
2023/07/07 01:30:15;;;;;;;5.68;3.45;;;;;;;10.01;100.00;101992.19;5034216;28;20025;-73
2023/07/07 01:32:42;;;;;;;4.63;3.53;;;;;;;9.99;100.00;101986.16;5034453;28;20029;-73
2023/07/07 01:35:13;;;;;;;8.80;4.03;;;;;;;9.97;100.00;101991.56;5034352;28;20120;-72
2023/07/07 01:37:38;;;;;;;5.25;3.47;;;;;;;9.95;100.00;101989.97;5034429;28;20039;-73
2023/07/07 01:40:05;;;;;;;7.57;3.50;;;;;;;9.92;100.00;101993.69;5034130;28;20042;-73
2023/07/07 01:42:40;;;;;;;6.20;3.88;;;;;;;9.89;100.00;101983.25;5034101;28;20041;-73
2023/07/07 01:45:16;;;;;;;6.07;3.67;;;;;;;9.85;100.00;101976.44;5034271;28;20544;-73
2023/07/07 01:47:50;;;;;;;4.95;3.38;;;;;;;9.81;100.00;101986.47;5034382;28;20051;-73
2023/07/07 01:50:22;;;;;;;6.78;3.78;;;;;;;9.80;100.00;101991.88;5033978;28;20485;-73
2023/07/07 01:52:50;;;;;;;6.38;3.30;;;;;;;9.78;100.00;101986.66;5034081;28;20389;-73
2023/07/07 01:55:20;;;;;;;4.03;3.35;;;;;;;9.75;100.00;101984.22;4995710;28;1110994;-73
2023/07/07 01:57:50;;;;;;;7.53;3.60;;;;;;;9.73;100.00;101985.28;5035427;28;20469;-73
2023/07/07 02:00:17;;;;;;;4.93;3.60;;;;;;;9.71;100.00;101985.38;5034929;28;20029;-73
2023/07/07 02:02:42;;;;;;;7.30;4.13;;;;;;;9.71;100.00;101988.03;5035228;28;20037;-73
2023/07/07 02:05:11;;;;;;;7.03;4.00;;;;;;;9.69;100.00;101988.16;5035178;28;20116;-73
2023/07/07 02:07:36;;;;;;;8.07;3.70;;;;;;;9.66;100.00;101980.38;5034381;28;20030;-73
2023/07/07 02:10:02;;;;;;;6.60;4.15;;;;;;;9.65;100.00;101984.00;5035176;28;20417;-73
2023/07/07 02:12:27;;;;;;;5.57;3.30;;;;;;;9.64;100.00;101987.63;5016637;28;20057;-73
2023/07/07 02:14:53;;;;;;;8.55;4.20;;;;;;;9.59;100.00;101981.75;5035049;28;20030;-73
2023/07/07 02:17:18;;;;;;;8.75;4.65;;;;;;;9.60;100.00;101979.94;5034267;28;20469;-73
2023/07/07 02:19:44;;;;;;;8.45;3.80;;;;;;;9.57;100.00;101981.03;5034992;28;20381;-72
2023/07/07 02:22:09;;;;;;;6.72;4.22;;;;;;;9.52;100.00;101978.69;5034902;28;20045;-72
2023/07/07 02:24:35;;;;;;;8.25;4.70;;;;;;;9.55;100.00;101979.41;5034265;28;20171;-72
2023/07/07 02:27:01;;;;;;;7.13;5.63;;;;;;;9.52;100.00;101978.69;5034612;28;20112;-73
2023/07/07 02:29:27;;;;;;;7.43;5.38;;;;;;;9.53;100.00;101985.69;5016685;28;20033;-72
2023/07/07 02:31:52;;;;;;;8.57;4.93;;;;;;;9.53;100.00;101985.69;5034427;28;20033;-71
2023/07/07 02:34:18;;;;;;;5.45;4.28;;;;;;;9.50;100.00;101979.75;5034259;28;20026;-73
2023/07/07 02:36:43;;;;;;;9.93;5.22;;;;;;;9.47;100.00;101982.59;5016897;28;20069;-72
2023/07/07 02:39:08;;;;;;;7.95;4.93;;;;;;;9.46;100.00;101984.38;5034262;28;20168;-71
2023/07/07 02:41:34;;;;;;;7.18;5.00;;;;;;;9.45;100.00;101982.72;5032977;28;20481;-72
2023/07/07 02:43:59;;;;;;;6.72;5.07;;;;;;;9.44;100.00;101978.34;5034607;28;20037;-73
2023/07/07 02:46:24;;;;;;;9.73;4.78;;;;;;;9.43;100.00;101981.09;5034135;28;20040;-72
2023/07/07 02:48:50;;;;;;;7.32;4.78;;;;;;;9.42;100.00;101988.22;5033550;28;20045;-72
2023/07/07 02:51:15;;;;;;;8.50;4.72;;;;;;;9.42;100.00;101985.56;5034436;28;20083;-71
2023/07/07 02:53:40;;;;;;;10.02;5.32;;;;;;;9.41;100.00;101991.84;5033886;28;20041;-72
2023/07/07 02:56:06;;;;;;;9.73;5.10;;;;;;;9.39;100.00;101995.53;5033763;28;20054;-72
2023/07/07 02:58:32;;;;;;;6.28;4.65;;;;;;;9.35;100.00;101987.78;5033891;28;20132;-71
2023/07/07 03:01:09;;;;;;;8.30;5.93;;;;;;;9.34;100.00;101983.44;5034212;28;20409;-71
2023/07/07 03:03:36;;;;;;;8.02;5.57;;;;;;;9.33;100.00;101980.84;5033740;28;20040;-71
2023/07/07 03:06:03;;;;;;;6.35;5.22;;;;;;;9.31;100.00;101988.94;5034195;28;20049;-71
2023/07/07 03:08:29;;;;;;;8.82;5.43;;;;;;;9.29;100.00;101990.00;5015947;28;20362;-71
2023/07/07 03:10:54;;;;;;;9.32;4.20;;;;;;;9.26;100.00;101998.19;5033991;28;20060;-71
2023/07/07 03:13:20;;;;;;;6.38;5.20;;;;;;;9.23;100.00;101993.06;5033937;28;20029;-71
2023/07/07 03:15:45;;;;;;;9.30;5.97;;;;;;;9.21;100.00;101997.63;5033560;28;20124;-72
2023/07/07 03:18:14;;;;;;;6.57;5.15;;;;;;;9.21;100.00;101989.66;5015297;28;20557;-70
2023/07/07 03:20:46;;;;;;;6.60;5.40;;;;;;;9.19;100.00;101995.06;5033442;28;20520;-71
2023/07/07 03:23:11;;;;;;;7.70;5.20;;;;;;;9.20;100.00;101995.94;5033913;28;20092;-71
2023/07/07 03:25:36;;;;;;;7.65;5.30;;;;;;;9.19;100.00;101992.41;5015534;28;20418;-71
2023/07/07 03:28:02;;;;;;;11.88;5.03;;;;;;;9.19;100.00;101987.09;5033601;28;20059;-71
2023/07/07 03:30:27;;;;;;;7.75;5.60;;;;;;;9.22;100.00;101994.03;5033189;28;20033;-71
2023/07/07 03:32:53;;;;;;;7.20;4.57;;;;;;;9.22;100.00;101999.34;5032411;28;20071;-72
2023/07/07 03:35:18;;;;;;;8.60;6.10;;;;;;;9.23;100.00;101999.22;5033441;28;20476;-72
2023/07/07 03:37:44;;;;;;;7.07;5.20;;;;;;;9.24;100.00;101992.09;5032960;28;20037;-72
2023/07/07 03:40:09;;;;;;;11.57;6.35;;;;;;;9.27;100.00;102000.72;5033420;28;20385;-73
2023/07/07 03:42:36;;;;;;;9.48;5.38;;;;;;;9.26;100.00;101993.72;5015315;28;20382;-73
2023/07/07 03:45:01;;;;;;;10.93;6.13;;;;;;;9.28;100.00;101993.59;5033335;28;20025;-73
2023/07/07 03:47:27;;;;;;;7.85;5.45;;;;;;;9.29;100.00;101996.16;5032909;28;20136;-73
2023/07/07 03:49:52;;;;;;;7.88;5.40;;;;;;;9.31;100.00;101996.91;5033207;28;20037;-73
2023/07/07 03:52:17;;;;;;;8.52;6.03;;;;;;;9.35;100.00;101986.94;5033198;28;20033;-73
2023/07/07 03:54:43;;;;;;;10.40;5.90;;;;;;;9.40;100.00;101992.78;5014671;28;20053;-73
2023/07/07 03:57:10;;;;;;;9.50;6.22;;;;;;;9.43;100.00;101991.72;5033062;28;20124;-73
2023/07/07 03:59:36;;;;;;;10.40;6.32;;;;;;;9.45;100.00;101992.47;5032507;28;20481;-73
2023/07/07 04:02:02;;;;;;;10.18;7.03;;;;;;;9.49;100.00;101989.53;5031625;28;20033;-73
2023/07/07 04:04:27;;;;;;;11.38;6.10;;;;;;;9.51;100.00;101998.22;5033089;28;20033;-72
2023/07/07 04:06:55;;;;;;;10.27;6.70;;;;;;;9.53;100.00;102000.78;5032556;28;20123;-73
2023/07/07 04:09:21;;;;;;;9.63;6.95;;;;;;;9.56;100.00;102000.56;5032911;28;20049;-73
2023/07/07 04:11:46;;;;;;;11.25;6.75;;;;;;;9.58;100.00;102000.47;5032471;28;20528;-73
2023/07/07 04:14:11;;;;;;;11.55;5.47;;;;;;;9.61;100.00;102009.06;5032926;28;20029;-73
2023/07/07 04:16:37;;;;;;;9.45;6.63;;;;;;;9.64;100.00;102008.03;5032513;28;20159;-71
2023/07/07 04:19:02;;;;;;;11.10;6.57;;;;;;;9.67;100.00;102003.38;5032881;28;20041;-71
2023/07/07 04:21:29;;;;;;;8.70;6.18;;;;;;;9.69;100.00;102012.06;5032710;28;20071;-71
2023/07/07 04:23:57;;;;;;;11.63;6.90;;;;;;;9.75;100.00;102016.13;5032784;28;20029;-71
2023/07/07 04:26:24;;;;;;;10.80;6.93;;;;;;;9.77;100.00;102003.56;5032478;28;20044;-71
2023/07/07 04:28:51;;;;;;;8.82;6.57;;;;;;;9.82;100.00;102000.59;5014419;28;20312;-71
2023/07/07 04:31:17;;;;;;;11.27;7.30;;;;;;;9.88;100.00;102000.16;5031354;28;20112;-71
2023/07/07 04:33:42;;;;;;;8.38;5.93;;;;;;;9.94;100.00;102010.41;5014456;28;20645;-70
2023/07/07 04:36:10;;;;;;;11.75;6.10;;;;;;;9.99;100.00;102018.06;5032568;28;20064;-71
2023/07/07 04:38:36;;;;;;;10.73;7.10;;;;;;;10.05;100.00;102014.97;5032011;28;20033;-71
2023/07/07 04:41:15;;;;;;;13.50;6.80;;;;;;;10.12;100.00;102002.06;5032183;28;20045;-70
2023/07/07 04:43:48;;;;;;;9.20;6.32;;;;;;;10.18;100.00;101997.19;5032533;28;20047;-71
2023/07/07 04:46:17;;;;;;;10.20;6.57;;;;;;;10.24;100.00;101999.41;5032640;28;20033;-71
2023/07/07 04:48:42;;;;;;;11.80;6.97;;;;;;;10.31;100.00;102009.63;5032060;28;20042;-69
2023/07/07 04:51:09;;;;;;;7.28;5.25;;;;;;;10.36;100.00;101999.50;5032265;28;20088;-72
2023/07/07 04:53:36;;;;;;;10.60;6.65;;;;;;;10.42;100.00;101996.44;5031717;28;20030;-73
2023/07/07 04:56:09;;;;;;;9.18;6.90;;;;;;;10.50;100.00;102002.03;5031962;28;20156;-72
2023/07/07 04:58:36;;;;;;;13.60;7.30;;;;;;;10.57;100.00;101997.16;5032009;28;20032;-73
2023/07/07 05:01:10;;;;;;;19.05;10.23;;;;;;;10.66;100.00;101995.59;5032224;28;20041;-73
2023/07/07 05:03:37;;;;;;;14.40;8.95;;;;;;;10.73;100.00;102005.72;5032077;28;20389;-73
2023/07/07 05:06:03;;;;;;;13.32;6.80;;;;;;;10.81;100.00;102013.16;5032257;28;20022;-72
2023/07/07 05:08:35;;;;;;;9.10;6.82;;;;;;;10.90;100.00;102008.97;5032221;28;20056;-73
2023/07/07 05:11:00;;;;;;;;;;;;;;;11.02;100.00;102007.22;5032345;28;20033;-72
2023/07/07 05:13:26;;;;;;;6.97;5.22;;;;;;;11.13;100.00;102009.91;5032040;28;19909;-72
2023/07/07 05:16:10;;;;;;;11.55;5.95;;;;;;;11.27;100.00;102001.75;5031803;28;20171;-72
2023/07/07 05:18:35;;;;;;;6.43;4.82;;;;;;;11.40;100.00;102011.47;5032288;28;20087;-72
2023/07/07 05:21:01;;;;;;;6.97;4.90;;;;;;;11.51;100.00;102011.53;5031828;28;20121;-72
2023/07/07 05:23:27;;;;;;;7.03;5.15;;;;;;;11.64;100.00;102014.94;5032150;28;20030;-72
2023/07/07 05:25:52;;;;;;;7.00;5.18;;;;;;;11.78;100.00;102018.38;5031708;28;20037;-73
2023/07/07 05:28:18;;;;;;;9.02;6.13;;;;;;;11.90;100.00;102022.75;5032072;28;20036;-72
2023/07/07 05:30:44;;;;;;;13.52;6.13;;;;;;;12.05;100.00;102031.41;5031555;28;20030;-72
2023/07/07 05:33:10;;;;;;;6.72;5.20;;;;;;;12.15;100.00;102032.41;5032175;28;20377;-72
2023/07/07 05:35:35;;;;;;;12.48;5.63;;;;;;;12.27;100.00;102025.25;5032693;28;20056;-72
2023/07/07 05:38:01;;;;;;;9.30;4.60;;;;;;;12.42;100.00;102027.66;5013712;28;20033;-71
2023/07/07 05:40:27;;;;;;;9.23;4.65;;;;;;;12.56;100.00;102027.41;5031959;28;20029;-72
2023/07/07 05:42:53;;;;;;;12.25;4.18;;;;;;;12.71;100.00;102030.66;5034386;28;20083;-72
2023/07/07 05:45:19;;;;;;;5.28;3.83;;;;;;;12.93;100.00;102024.44;5035758;28;20033;-72
2023/07/07 05:47:45;;;;;;;6.40;3.80;;;;;;;13.13;100.00;102027.28;5035216;28;20033;-72
2023/07/07 05:50:10;;;;;;;4.35;3.40;;;;;;;13.34;100.00;102028.19;5035590;28;20378;-72
2023/07/07 05:52:35;;;;;;;8.82;4.00;;;;;;;13.55;100.00;102036.25;5035315;28;20462;-71
2023/07/07 05:55:03;;;;;;;7.38;4.03;;;;;;;13.74;100.00;102038.19;5035299;28;21110;-71
2023/07/07 05:57:28;;;;;;;9.15;3.75;;;;;;;13.99;100.00;102038.78;5035330;28;20505;-71
2023/07/07 05:59:54;;;;;;;5.55;3.40;;;;;;;14.19;100.00;102037.03;5035016;28;20128;-72
2023/07/07 06:02:19;;;;;;;8.55;3.58;;;;;;;14.43;100.00;102030.53;5035653;28;20153;-72
2023/07/07 06:04:45;;;;;;;6.05;3.00;;;;;;;14.67;100.00;102032.88;5034922;28;20029;-72
2023/07/07 06:07:10;;;;;;;5.53;3.55;;;;;;;14.90;100.00;102033.50;5035430;28;20048;-71
2023/07/07 06:09:36;;;;;;;7.88;3.08;;;;;;;15.16;100.00;102022.25;5035253;28;20034;-71
2023/07/07 06:12:02;;;;;;;6.38;3.28;;;;;;;15.48;100.00;102021.09;5034810;28;20531;-72
2023/07/07 06:14:27;;;;;;;7.72;3.67;;;;;;;15.76;100.00;102022.03;5035136;28;20120;-72
2023/07/07 06:16:52;;;;;;;6.32;3.45;;;;;;;16.03;100.00;102017.78;5034751;28;20116;-71
2023/07/07 06:19:18;;;;;;;15.18;3.28;;;;;;;16.26;100.00;102020.94;5035105;28;20034;-71
2023/07/07 06:21:43;;;;;;;4.70;3.05;;;;;;;16.46;100.00;102027.06;5035020;28;20104;-73
2023/07/07 06:24:08;;;;;;;9.85;2.72;;;;;;;16.71;100.00;102030.06;5034626;28;20030;-73
2023/07/07 06:26:34;;;;;;;6.60;2.65;;;;;;;17.01;100.00;102026.19;5035053;28;20041;-72
2023/07/07 06:28:59;;;;;;;7.53;2.78;;;;;;;17.34;100.00;102033.75;5033599;28;20125;-73
2023/07/07 06:31:24;;;;;;;8.57;3.20;;;;;;;17.62;100.00;102029.94;5034549;28;20033;-72
2023/07/07 06:33:50;;;;;;;8.40;2.88;;;;;;;17.88;100.00;102037.16;5034333;28;20077;-73
2023/07/07 06:36:15;;;;;;;8.32;3.13;;;;;;;18.07;100.00;102032.63;5034905;28;20067;-73
2023/07/07 06:38:40;;;;;;;6.75;2.30;;;;;;;18.23;100.00;102037.25;5034528;28;20044;-73
2023/07/07 06:41:11;;;;;;;3.03;2.25;;;;;;;18.37;100.00;102036.63;5034310;28;20544;-74
2023/07/07 06:43:36;;;;;;;5.75;2.40;;;;;;;18.57;100.00;102037.22;5028823;28;20029;-72
2023/07/07 06:46:02;;;;;;;7.93;2.65;;;;;;;18.79;100.00;102043.00;4994400;28;20383;-75
2023/07/07 06:48:27;;;;;;;4.45;2.50;;;;;;;19.04;100.00;102041.25;5013649;28;20034;-72
2023/07/07 06:50:52;;;;;;;5.88;2.45;;;;;;;19.19;100.00;102046.84;5012099;28;20045;-74
2023/07/07 06:53:18;;;;;;;5.47;2.85;;;;;;;19.36;100.00;102040.47;5010585;28;20386;-72
2023/07/07 06:55:43;;;;;;;3.08;2.10;;;;;;;19.48;100.00;102046.38;5011542;28;20054;-71
2023/07/07 06:58:11;;;;;;;4.18;2.35;;;;;;;19.66;100.00;102046.19;5011420;28;20440;-73
2023/07/07 07:00:37;;;;;;;5.30;2.50;;;;;;;19.90;100.00;102042.63;5011675;28;20026;-73
2023/07/07 07:03:03;;;;;;;6.45;2.55;;;;;;;20.03;100.00;102054.75;5011231;28;20048;-72
2023/07/07 07:05:28;;;;;;;4.68;2.67;;;;;;;20.19;100.00;102053.88;5011697;28;20116;-73
2023/07/07 07:07:54;;;;;;;6.15;2.97;;;;;;;20.35;100.00;102050.28;5010768;28;20093;-74
2023/07/07 07:10:19;;;;;;;3.90;2.10;;;;;;;20.44;100.00;102051.94;5012125;28;20116;-74
2023/07/07 07:12:45;;;;;;;6.13;2.33;;;;;;;20.51;100.00;102044.81;5010538;28;20092;-74
2023/07/07 07:15:10;;;;;;;5.22;2.22;;;;;;;20.57;100.00;102045.94;5015103;28;20079;-74
2023/07/07 07:17:36;;;;;;;4.30;2.00;;;;;;;20.66;100.00;102046.78;4994363;28;20168;-72
2023/07/07 07:20:01;;;;;;;10.18;2.80;;;;;;;20.86;100.00;102048.03;5010561;28;20037;-71
2023/07/07 07:22:27;;;;;;;4.43;2.20;;;;;;;20.99;100.00;102047.47;5009672;28;20042;-72
2023/07/07 07:24:52;;;;;;;4.35;2.30;;;;;;;21.06;100.00;102053.00;5011120;28;20038;-72
2023/07/07 07:27:18;;;;;;;7.32;2.25;;;;;;;21.12;100.00;102050.41;5010802;28;20038;-72
2023/07/07 07:29:44;;;;;;;4.57;2.22;;;;;;;21.22;100.00;102052.88;4993482;28;20042;-72
2023/07/07 07:32:10;;;;;;;5.00;2.40;;;;;;;21.44;100.00;102044.94;5010391;28;20044;-73
2023/07/07 07:34:36;;;;;;;8.48;2.47;;;;;;;21.60;100.00;102044.81;5011240;28;20060;-74
2023/07/07 07:37:02;;;;;;;5.68;2.30;;;;;;;21.73;100.00;102055.00;5009709;28;20037;-73
2023/07/07 07:39:28;;;;;;;4.65;2.20;;;;;;;21.82;93.53;102056.59;5012459;28;20125;-73
2023/07/07 07:41:55;;;;;;;7.70;2.22;;;;;;;21.92;90.21;102058.25;5008003;28;20026;-74
2023/07/07 07:44:22;;;;;;;11.05;2.22;;;;;;;22.06;97.07;102059.28;5012565;28;20386;-73
2023/07/07 07:46:50;;;;;;;3.92;2.03;;;;;;;22.16;91.96;102063.38;5013533;28;20045;-73
2023/07/07 07:49:16;;;;;;;8.50;2.15;;;;;;;22.26;88.57;102059.53;5013272;28;20030;-72
2023/07/07 07:51:41;;;;;;;3.65;2.10;;;;;;;22.33;77.76;102060.50;4995919;28;20367;-73
2023/07/07 07:54:09;;;;;;;7.75;2.33;;;;;;;22.51;83.98;102065.53;5012868;28;20145;-73
2023/07/07 07:56:35;;;;;;;4.63;1.77;;;;;;;22.60;75.18;102064.44;5013519;28;20034;-73
2023/07/07 07:59:00;;;;;;;6.40;2.45;;;;;;;22.77;73.45;102061.50;5013029;28;20084;-73
2023/07/07 08:01:26;;;;;;;4.70;2.00;;;;;;;22.86;86.85;102066.59;4995797;28;20406;-73
2023/07/07 08:03:51;;;;;;;5.07;2.05;;;;;;;23.04;85.92;102062.63;5012931;28;20030;-73
2023/07/07 08:06:17;;;;;;;6.78;2.20;;;;;;;23.06;80.74;102061.41;5012503;28;20033;-73
2023/07/07 08:08:42;;;;;;;7.22;2.38;;;;;;;23.16;73.34;102054.84;5012048;28;20474;-72
2023/07/07 08:11:20;;;;;;;5.47;1.98;;;;;;;23.38;75.61;102070.09;5012862;28;20026;-72
2023/07/07 08:13:46;;;;;;;4.93;2.10;;;;;;;23.62;74.72;102064.44;5013281;28;20041;-72
2023/07/07 08:16:12;;;;;;;4.13;2.30;;;;;;;23.78;75.72;102061.44;5012789;28;20038;-73
2023/07/07 08:18:41;;;;;;;5.75;2.10;;;;;;;23.85;61.12;102070.50;5013060;28;20029;-72
2023/07/07 08:21:06;;;;;;;5.07;2.30;;;;;;;23.95;61.87;102070.19;5012733;28;20034;-73
2023/07/07 08:23:32;;;;;;;6.43;2.00;;;;;;;24.02;66.90;102072.91;5012784;28;20541;-73
2023/07/07 08:25:59;;;;;;;5.13;2.38;;;;;;;24.21;59.86;102084.97;5013086;28;20033;-72
2023/07/07 08:28:24;;;;;;;5.22;3.08;;;;;;;24.39;60.92;102065.41;5012335;28;20033;-72
2023/07/07 08:30:49;;;;;;;5.75;2.20;;;;;;;24.52;57.14;102073.63;5011893;28;20048;-72
2023/07/07 08:33:15;;;;;;;3.83;2.25;;;;;;;24.67;58.10;102069.97;5012593;28;20033;-72
2023/07/07 08:35:41;;;;;;;3.08;1.75;;;;;;;24.67;51.63;102067.25;5013285;28;20065;-77
2023/07/07 08:38:06;;;;;;;4.28;2.08;;;;;;;24.76;57.10;102064.13;5012515;28;20034;-75
2023/07/07 08:40:42;;;;;;;8.95;2.20;;;;;;;24.82;54.81;102067.91;5012942;28;20026;-75
2023/07/07 08:43:10;;;;;;;4.18;2.10;;;;;;;24.85;54.91;102070.22;5012352;28;20165;-75
2023/07/07 08:45:37;;;;;;;4.93;2.22;;;;;;;24.95;57.45;102073.41;5013064;28;20037;-74
2023/07/07 08:48:24;;;;;;;3.53;2.05;;;;;;;25.12;53.78;102073.84;5012783;28;20041;-73
2023/07/07 08:50:55;;;;;;;4.32;2.25;;;;;;;25.27;50.78;102064.66;5017552;28;20044;-76
2023/07/07 08:53:52;;;;;;;8.60;2.50;;;;;;;25.37;53.51;102069.75;5031358;28;20048;-74
2023/07/07 08:56:20;;;;;;;5.00;2.45;;;;;;;25.72;50.92;102064.06;5030682;28;20045;-72
2023/07/07 08:59:01;;;;;;;6.53;2.45;;;;;;;25.99;50.64;102063.03;5031796;28;20091;-73
2023/07/07 09:01:41;;;;;;;6.07;2.22;;;;;;;26.09;44.30;102059.84;5031019;28;20025;-75
2023/07/07 09:04:42;;;;;;;5.18;2.10;;;;;;;26.42;43.95;102058.09;5013888;28;20449;-75
2023/07/07 09:07:23;;;;;;;;;;;;;;;26.80;44.08;102068.22;5008088;28;20046;-75
2023/07/07 09:09:54;;;;;;;4.00;1.95;;;;;;;27.28;46.90;102062.25;5032372;28;19916;-74
2023/07/07 09:12:36;;;;;;;4.15;2.00;;;;;;;27.69;43.92;102058.16;5031320;28;20033;-75
2023/07/07 09:15:04;;;;;;;5.75;2.28;;;;;;;28.20;44.10;102060.81;5032118;28;20112;-75
2023/07/07 09:17:37;;;;;;;6.90;2.10;;;;;;;28.54;41.60;102051.16;5033464;28;20099;-75
2023/07/07 09:20:06;;;;;;;5.97;2.03;;;;;;;28.87;41.45;102057.28;5018202;28;20026;-75
2023/07/07 09:22:43;;;;;;;2.83;2.20;;;;;;;28.94;37.89;102067.06;5034791;28;20029;-75
2023/07/07 09:25:19;;;;;;;3.78;2.05;;;;;;;29.13;38.57;102050.56;5035391;28;20366;-82
2023/07/07 09:27:58;;;;;;;5.57;2.55;;;;;;;29.46;36.74;102058.28;5002134;28;20462;-71
2023/07/07 09:30:34;;;;;;;6.18;2.30;;;;;;;29.47;35.85;102056.34;5017831;28;20030;-73
2023/07/07 09:33:00;;;;;;;3.92;2.05;;;;;;;29.28;35.49;102055.66;5018164;28;20037;-72
2023/07/07 09:35:34;;;;;;;3.78;2.38;;;;;;;29.18;34.24;102062.47;5035553;28;20033;-72
2023/07/07 09:38:43;;;;;;;5.28;2.17;;;;;;;29.11;34.01;102058.19;5035378;28;20557;-72
2023/07/07 09:41:33;;;;;;;2.60;2.00;;;;;;;29.34;35.43;102060.19;4965846;28;20099;-72
2023/07/07 09:44:29;;;;;;;6.13;2.23;;;;;;;29.92;38.37;102057.72;5035735;28;20033;-73
2023/07/07 09:47:06;;;;;;;3.28;2.20;;;;;;;30.36;35.47;102053.44;5035790;28;20029;-72
2023/07/07 09:49:47;;;;;;;3.83;1.98;;;;;;;30.63;36.69;102058.41;5035030;28;20061;-72
2023/07/07 09:52:27;;;;;;;5.70;2.22;;;;;;;30.69;35.34;102053.84;5035656;28;20029;-72
2023/07/07 09:54:54;;;;;;;;;;;;;;;31.00;36.93;102054.47;5035554;28;20107;-72
2023/07/07 09:57:30;;;;;;;4.70;2.25;;;;;;;31.22;34.23;102055.41;5035058;28;19959;-73
2023/07/07 09:59:58;;;;;;;5.30;2.08;;;;;;;31.05;33.38;102049.03;5035319;28;20540;-73
2023/07/07 10:02:25;;;;;;;5.65;2.20;;;;;;;31.09;32.36;102055.72;5017449;28;20025;-74
2023/07/07 10:05:17;;;;;;;5.15;2.00;;;;;;;31.09;33.64;102051.03;5035328;28;20501;-72
2023/07/07 10:07:42;;;;;;;3.10;2.10;;;;;;;31.28;35.43;102056.31;5035306;28;20496;-72
2023/07/07 10:10:16;;;;;;;3.55;2.00;;;;;;;31.50;34.25;102052.81;5035330;28;20124;-72
2023/07/07 10:12:41;;;;;;;3.67;2.17;;;;;;;31.42;34.38;102052.13;5034695;28;20041;-72
2023/07/07 10:15:29;;;;;;;7.65;2.20;;;;;;;31.20;33.72;102051.22;5035181;28;20079;-73
2023/07/07 10:18:02;;;;;;;3.58;2.03;;;;;;;31.24;34.34;102044.16;5034812;28;20025;-72
2023/07/07 10:20:28;;;;;;;4.10;2.25;;;;;;;31.51;33.90;102054.47;5034730;28;20040;-73
2023/07/07 10:22:53;;;;;;;6.35;2.13;;;;;;;31.83;33.95;102051.97;5035061;28;20034;-72
2023/07/07 10:25:19;;;;;;;9.48;2.40;;;;;;;32.32;35.37;102057.59;5034552;28;20029;-73
2023/07/07 10:27:52;;;;;;;6.20;2.05;;;;;;;32.23;33.94;102050.88;5034647;28;20029;-73
2023/07/07 10:30:17;;;;;;;3.50;2.58;;;;;;;32.39;32.49;102048.31;5034560;28;20040;-73
2023/07/07 10:32:43;;;;;;;7.57;2.30;;;;;;;32.21;31.27;102054.97;5034276;28;20503;-72
2023/07/07 10:35:09;;;;;;;4.80;2.20;;;;;;;31.93;31.02;102054.03;5034637;28;20033;-72
2023/07/07 10:37:37;;;;;;;5.00;2.45;;;;;;;31.76;31.47;102048.56;5034215;28;20045;-72
2023/07/07 10:40:03;;;;;;;4.13;2.38;;;;;;;31.86;33.52;102045.97;5034855;28;20030;-71
2023/07/07 10:42:31;;;;;;;3.38;2.13;;;;;;;32.21;30.92;102049.47;5034296;28;20029;-72
2023/07/07 10:44:59;;;;;;;7.32;2.55;;;;;;;32.55;30.62;102050.16;5034604;28;20033;-72
2023/07/07 10:47:29;;;;;;;5.82;2.40;;;;;;;32.42;32.34;102045.88;5034145;28;20044;-72
2023/07/07 10:49:58;;;;;;;9.80;2.50;;;;;;;32.36;30.59;102035.88;5034636;28;20034;-72
2023/07/07 10:52:41;;;;;;;4.15;2.38;;;;;;;32.43;32.04;102042.03;5033782;28;20025;-72
2023/07/07 10:55:10;;;;;;;5.63;2.30;;;;;;;32.91;32.55;102044.22;5034436;28;20120;-71
2023/07/07 10:58:08;;;;;;;4.90;2.40;;;;;;;32.85;28.71;102044.16;5033780;28;20036;-71
2023/07/07 11:00:40;;;;;;;3.40;2.28;;;;;;;33.43;31.08;102042.72;5033961;28;20052;-71
2023/07/07 11:03:16;;;;;;;3.65;1.90;;;;;;;33.32;29.08;102042.66;5033903;28;20386;-72
2023/07/07 11:06:07;;;;;;;5.15;2.13;;;;;;;33.69;30.25;102035.47;5033670;28;20119;-71
2023/07/07 11:08:54;;;;;;;4.97;2.40;;;;;;;33.98;31.24;102035.94;5033742;28;20037;-71
2023/07/07 11:11:27;;;;;;;5.63;2.38;;;;;;;34.23;30.85;102023.31;5034151;28;20052;-71
2023/07/07 11:14:11;;;;;;;5.10;2.30;;;;;;;34.13;29.71;102029.66;5033932;28;20103;-71
2023/07/07 11:17:17;;;;;;;2.92;2.05;;;;;;;33.89;28.97;102026.50;5033534;28;20033;-71
2023/07/07 11:19:51;;;;;;;7.55;2.30;;;;;;;34.15;30.12;102019.16;5001709;28;20047;-71
2023/07/07 11:22:19;;;;;;;3.35;2.20;;;;;;;34.66;31.02;102031.47;5033855;28;20524;-71
2023/07/07 11:24:56;;;;;;;5.32;2.58;;;;;;;34.77;29.09;102020.19;5015542;28;20037;-72
2023/07/07 11:27:54;;;;;;;4.45;2.50;;;;;;;34.51;28.97;102024.81;5016030;28;20044;-71
2023/07/07 11:30:28;;;;;;;5.20;2.50;;;;;;;34.83;29.89;102025.72;5032946;28;20417;-71